• Join FlightAware (Why Join?)
  • Login
  • US Flag 
03:22PM EDT


 

Airport Tracker/Info


-or-


 

Live Flight TrackerFlight Track Log ✈ N908CB ✈ 08-Jun-2013 ✈ KPDK - KCHA

Flight Track Log - Related Links

Times and Time Zones

All times are in EDT time to prevent confusion due to time zone crossing. See the N908CB flight status page for this flight to view local times or setup timezone preferences in your user account.

Time Position Orientation Groundspeed Altitude Reporting Facility
EDT Latitude Longitude Course Direction KTS MPH feet Rate Location/Type
12:02PM 33.8780 -84.3070 14° North  Level FlightAware
12:08PM 33.8780 -84.3030 90° East 28 32 60 Level FlightAware
12:09PM 33.8790 -84.3020 40° Northeast 21 24 120 Level FlightAware
12:11PM 33.9365 -84.3543 323° Northwest  Level FlightAware Approximate
12:12PM 33.9670 -84.3803 326° Northwest  Level FlightAware Approximate
12:13PM 33.9981 -84.4051 326° Northwest  Level FlightAware Approximate
12:14PM 34.0291 -84.4299 326° Northwest  Level FlightAware Approximate
12:14PM 33.8720 -84.3040 326° Northwest 75 86 900  Level FlightAware
12:14PM 33.8670 -84.3060 198° South 79 91 1,100 420 Climbing FlightAware
12:15PM 33.8560 -84.3100 197° South 93 107 1,200 600 Climbing FlightAware
12:15PM 33.8510 -84.3130 206° Southwest 83 96 1,500 960 Climbing FlightAware
12:15PM 33.8490 -84.3170 239° Southwest 90 104 1,600 600 Climbing FlightAware
12:16PM 33.8520 -84.3300 286° West 91 105 1,900 480 Climbing FlightAware
12:16PM 33.8570 -84.3380 307° West 102 117 2,000 540 Climbing FlightAware
12:16PM 33.8640 -84.3500 305° West 102 117 2,300 660 Climbing FlightAware
12:17PM 33.8720 -84.3620 309° West 98 113 2,600 600 Climbing FlightAware
12:17PM 33.8800 -84.3750 307° West 99 114 2,900 600 Climbing FlightAware
12:18PM 33.8890 -84.3850 317° Northwest 101 116 3,200 600 Climbing FlightAware
12:18PM 33.8940 -84.3890 326° Northwest 101 116 3,300 600 Climbing FlightAware
12:19PM 33.9050 -84.3970 329° Northwest 99 114 3,600 600 Climbing FlightAware
12:19PM 33.9170 -84.4050 331° Northwest 100 115 3,900 300 Climbing FlightAware
12:19PM 33.9300 -84.4140 330° Northwest 126 145 3,900  Level FlightAware
12:20PM 33.9380 -84.4200 328° Northwest 132 152 3,900  Level FlightAware
12:20PM 33.9540 -84.4300 333° Northwest 139 160 3,900  Level FlightAware
12:21PM 33.9700 -84.4420 328° Northwest 143 165 3,900  Level FlightAware
12:21PM 33.9860 -84.4530 330° Northwest 140 161 3,900  Level FlightAware
12:22PM 33.9990 -84.4620 330° Northwest 143 165 3,900  Level FlightAware
12:22PM 34.0080 -84.4670 335° Northwest 145 167 3,900 300 Level FlightAware
12:22PM 34.0230 -84.4780 329° Northwest 130 150 4,100 780 Climbing FlightAware
12:23PM 34.0330 -84.4840 334° Northwest 112 129 4,500 720 Climbing FlightAware
12:23PM 34.0450 -84.4920 331° Northwest 107 123 4,700 420 Climbing FlightAware
12:23PM 34.0560 -84.4990 332° Northwest 107 123 4,900 540 Climbing FlightAware
12:24PM 34.0640 -84.5040 333° Northwest 109 125 5,100 540 Climbing FlightAware
12:24PM 34.0750 -84.5100 336° Northwest 110 127 5,300 540 Climbing FlightAware
12:25PM 34.0870 -84.5180 331° Northwest 109 125 5,600 480 Climbing FlightAware
12:25PM 34.1000 -84.5260 333° Northwest 110 127 5,800 420 Climbing FlightAware
12:25PM 34.1060 -84.5290 338° Northwest 115 132 5,900 120 Climbing FlightAware
12:26PM 34.1210 -84.5380 334° Northwest 131 151 5,900  Level FlightAware
12:26PM 34.1370 -84.5480 333° Northwest 140 161 5,900  Level FlightAware
12:27PM 34.1530 -84.5580 333° Northwest 142 163 5,900  Level FlightAware
12:27PM 34.1640 -84.5640 336° Northwest 143 165 5,900  Level FlightAware
12:27PM 34.1800 -84.5740 333° Northwest 144 166 5,900  Level FlightAware
12:28PM 34.1900 -84.5800 334° Northwest 145 167 5,900  Level FlightAware
12:28PM 34.2040 -84.5890 332° Northwest 146 168 5,900  Level FlightAware
12:28PM 34.2120 -84.5940 333° Northwest 145 167 5,900  Level FlightAware
12:29PM 34.2300 -84.6040 335° Northwest 144 166 5,900  Level FlightAware
12:29PM 34.2370 -84.6090 329° Northwest 143 165 5,900  Level FlightAware
12:30PM 34.2550 -84.6190 335° Northwest 143 165 5,900  Level FlightAware
12:30PM 34.2720 -84.6300 332° Northwest 144 166 5,900  Level FlightAware
12:30PM 34.2860 -84.6390 332° Northwest 144 166 5,900  Level FlightAware
12:31PM 34.3010 -84.6510 327° Northwest 142 163 5,900  Level FlightAware
12:31PM 34.3180 -84.6640 328° Northwest 143 165 5,900  Level FlightAware
12:32PM 34.3350 -84.6770 328° Northwest 144 166 5,900  Level FlightAware
12:32PM 34.3430 -84.6840 324° Northwest 144 166 5,900  Level FlightAware
12:33PM 34.3570 -84.6940 329° Northwest 143 165 5,900  Level FlightAware
12:33PM 34.3660 -84.7010 327° Northwest 143 165 5,900  Level FlightAware
12:33PM 34.3820 -84.7130 328° Northwest 140 161 5,900  Level FlightAware
12:34PM 34.3990 -84.7250 330° Northwest 141 162 5,900  Level FlightAware
12:34PM 34.4130 -84.7350 329° Northwest 142 163 5,900  Level FlightAware
12:35PM 34.4290 -84.7480 326° Northwest 142 163 5,900  Level FlightAware
12:35PM 34.4450 -84.7600 328° Northwest 141 162 5,900  Level FlightAware
12:36PM 34.4610 -84.7710 330° Northwest 141 162 5,900  Level FlightAware
12:36PM 34.4680 -84.7760 330° Northwest 141 162 5,900  Level FlightAware
12:36PM 34.4830 -84.7880 327° Northwest 141 162 5,900  Level FlightAware
12:36PM 34.4880 -84.7920 327° Northwest 141 162 5,900  Level FlightAware
12:37PM 34.5050 -84.8040 330° Northwest 144 166 5,900  Level FlightAware
12:37PM 34.5230 -84.8180 327° Northwest 144 166 5,900  Level FlightAware
12:38PM 34.5390 -84.8300 328° Northwest 143 165 5,900  Level FlightAware
12:38PM 34.5550 -84.8420 328° Northwest 145 167 5,900  Level FlightAware
12:39PM 34.5680 -84.8520 328° Northwest 143 165 5,900  Level FlightAware
12:39PM 34.5800 -84.8610 328° Northwest 142 163 5,900  Level FlightAware
12:40PM 34.5950 -84.8720 329° Northwest 143 165 5,900  Level FlightAware
12:40PM 34.6100 -84.8830 329° Northwest 143 165 5,900  Level FlightAware
12:40PM 34.6260 -84.8950 328° Northwest 143 165 5,900  Level FlightAware
12:41PM 34.6340 -84.9010 328° Northwest 142 163 5,900  Level FlightAware
12:41PM 34.6500 -84.9130 328° Northwest 142 163 5,900  Level FlightAware
12:42PM 34.6650 -84.9240 329° Northwest 142 163 5,900  Level FlightAware
12:42PM 34.6740 -84.9310 327° Northwest 143 165 5,900  Level FlightAware
12:42PM 34.6890 -84.9420 329° Northwest 143 165 5,900  Level FlightAware
12:43PM 34.7050 -84.9550 326° Northwest 142 163 5,900  Level FlightAware
12:43PM 34.7210 -84.9660 331° Northwest 148 170 5,900 -360 Level FlightAware
12:44PM 34.7380 -84.9790 328° Northwest 156 180 5,600 -660 Descending FlightAware
12:44PM 34.7560 -84.9920 329° Northwest 151 174 5,300 -480 Descending FlightAware
12:45PM 34.7680 -85.0020 326° Northwest 145 167 5,200 -480 Descending FlightAware
12:45PM 34.7770 -85.0080 331° Northwest 145 167 5,000 -600 Descending FlightAware
12:45PM 34.7950 -85.0220 327° Northwest 145 167 4,800 -540 Descending FlightAware
12:46PM 34.8120 -85.0350 328° Northwest 147 169 4,500 -540 Descending FlightAware
12:46PM 34.8280 -85.0460 331° Northwest 150 173 4,300 -540 Descending FlightAware
12:47PM 34.8450 -85.0600 326° Northwest 151 174 4,000 -480 Descending FlightAware
12:47PM 34.8590 -85.0700 330° Northwest 142 163 3,900 -180 Descending FlightAware
12:47PM 34.8640 -85.0740 327° Northwest 141 162 3,900 -540 Level FlightAware
12:48PM 34.8830 -85.0880 329° Northwest 149 171 3,500 -660 Descending FlightAware
12:48PM 34.8840 -85.0880 360° North 149 171 3,500 -180 Level FlightAware
12:49PM 34.9010 -85.1020 326° Northwest 152 175 3,400 -180 Descending FlightAware
12:51PM 34.9582 -85.1469 327° Northwest  Level FlightAware Approximate
12:52PM 34.9887 -85.1703 331° Northwest  Level FlightAware Approximate
12:53PM 35.0204 -85.1914 331° Northwest  Level FlightAware Approximate
12:54PM 35.0333 -85.2000 331° Northwest  Level FlightAware Approximate
12:55PM 35.0352 -85.2036 331° Northwest  Level Estimated
12:56PM 35.0333 -85.2000 331° Northwest  Level FlightAware Approximate
12:57PM 35.0352 -85.2036 331° Northwest  Level Estimated
12:58PM 35.0333 -85.2000 331° Northwest  Level FlightAware Approximate
12:59PM 35.0352 -85.2036 331° Northwest  Level Estimated
01:00PM 35.0333 -85.2000 331° Northwest  Level FlightAware Approximate